sensor_id;sensor_type;location;lat;lon;timestamp;temperature;humidity
67005;HTU21D;53920;51.094;5.902;2023-08-01T00:00:03;18.29;86.19
67005;HTU21D;53920;51.094;5.902;2023-08-01T00:02:38;18.30;86.18
67005;HTU21D;53920;51.094;5.902;2023-08-01T00:05:05;18.33;86.13
67005;HTU21D;53920;51.094;5.902;2023-08-01T00:07:30;18.33;86.12
67005;HTU21D;53920;51.094;5.902;2023-08-01T00:09:56;18.36;86.05
67005;HTU21D;53920;51.094;5.902;2023-08-01T00:12:24;18.39;85.96
67005;HTU21D;53920;51.094;5.902;2023-08-01T00:14:50;18.37;85.99
67005;HTU21D;53920;51.094;5.902;2023-08-01T00:17:16;18.38;85.96
67005;HTU21D;53920;51.094;5.902;2023-08-01T00:19:42;18.35;86.00
67005;HTU21D;53920;51.094;5.902;2023-08-01T00:22:08;18.32;86.03
67005;HTU21D;53920;51.094;5.902;2023-08-01T00:24:35;18.27;86.03
67005;HTU21D;53920;51.094;5.902;2023-08-01T00:27:01;18.24;86.10
67005;HTU21D;53920;51.094;5.902;2023-08-01T00:29:27;18.13;86.26
67005;HTU21D;53920;51.094;5.902;2023-08-01T00:31:53;18.12;86.25
67005;HTU21D;53920;51.094;5.902;2023-08-01T00:34:19;18.13;86.14
67005;HTU21D;53920;51.094;5.902;2023-08-01T00:36:44;18.15;86.03
67005;HTU21D;53920;51.094;5.902;2023-08-01T00:39:10;18.13;86.04
67005;HTU21D;53920;51.094;5.902;2023-08-01T00:41:36;18.07;86.15
67005;HTU21D;53920;51.094;5.902;2023-08-01T00:44:02;18.12;86.04
67005;HTU21D;53920;51.094;5.902;2023-08-01T00:46:29;18.14;85.95
67005;HTU21D;53920;51.094;5.902;2023-08-01T00:48:55;18.17;85.87
67005;HTU21D;53920;51.094;5.902;2023-08-01T00:51:24;18.17;85.82
67005;HTU21D;53920;51.094;5.902;2023-08-01T00:53:51;18.20;85.75
67005;HTU21D;53920;51.094;5.902;2023-08-01T00:56:18;18.24;85.67
67005;HTU21D;53920;51.094;5.902;2023-08-01T00:58:44;18.22;85.57
67005;HTU21D;53920;51.094;5.902;2023-08-01T01:01:10;18.15;85.67
67005;HTU21D;53920;51.094;5.902;2023-08-01T01:03:37;18.07;85.75
67005;HTU21D;53920;51.094;5.902;2023-08-01T01:08:42;18.02;85.71
67005;HTU21D;53920;51.094;5.902;2023-08-01T01:11:08;17.96;85.77
67005;HTU21D;53920;51.094;5.902;2023-08-01T01:13:34;17.83;85.81
67005;HTU21D;53920;51.094;5.902;2023-08-01T01:16:00;17.79;85.90
67005;HTU21D;53920;51.094;5.902;2023-08-01T01:18:26;17.74;86.03
67005;HTU21D;53920;51.094;5.902;2023-08-01T01:20:52;17.76;85.86
67005;HTU21D;53920;51.094;5.902;2023-08-01T01:23:20;17.76;85.80
67005;HTU21D;53920;51.094;5.902;2023-08-01T01:25:51;17.72;85.93
67005;HTU21D;53920;51.094;5.902;2023-08-01T01:28:19;17.68;85.90
67005;HTU21D;53920;51.094;5.902;2023-08-01T01:30:46;17.72;85.70
67005;HTU21D;53920;51.094;5.902;2023-08-01T01:33:14;17.72;85.58
67005;HTU21D;53920;51.094;5.902;2023-08-01T01:35:41;17.70;85.47
67005;HTU21D;53920;51.094;5.902;2023-08-01T01:38:08;17.68;85.41
67005;HTU21D;53920;51.094;5.902;2023-08-01T01:40:34;17.65;85.35
67005;HTU21D;53920;51.094;5.902;2023-08-01T01:43:01;17.65;85.01
67005;HTU21D;53920;51.094;5.902;2023-08-01T01:45:27;17.55;85.15
67005;HTU21D;53920;51.094;5.902;2023-08-01T01:47:53;17.53;85.09
67005;HTU21D;53920;51.094;5.902;2023-08-01T01:50:19;17.51;85.11
67005;HTU21D;53920;51.094;5.902;2023-08-01T01:52:45;17.48;85.19
67005;HTU21D;53920;51.094;5.902;2023-08-01T01:55:11;17.45;85.07
67005;HTU21D;53920;51.094;5.902;2023-08-01T01:57:38;17.45;84.87
67005;HTU21D;53920;51.094;5.902;2023-08-01T02:00:06;17.33;85.01
67005;HTU21D;53920;51.094;5.902;2023-08-01T02:02:38;17.22;85.23
67005;HTU21D;53920;51.094;5.902;2023-08-01T02:05:04;17.14;85.32
67005;HTU21D;53920;51.094;5.902;2023-08-01T02:07:30;17.16;85.05
67005;HTU21D;53920;51.094;5.902;2023-08-01T02:09:57;17.07;85.28
67005;HTU21D;53920;51.094;5.902;2023-08-01T02:12:23;17.10;85.00
67005;HTU21D;53920;51.094;5.902;2023-08-01T02:14:49;17.10;84.84
67005;HTU21D;53920;51.094;5.902;2023-08-01T02:17:15;17.06;84.89
67005;HTU21D;53920;51.094;5.902;2023-08-01T02:19:41;17.00;84.97
67005;HTU21D;53920;51.094;5.902;2023-08-01T02:22:07;16.92;85.19
67005;HTU21D;53920;51.094;5.902;2023-08-01T02:24:33;16.92;85.09
67005;HTU21D;53920;51.094;5.902;2023-08-01T02:26:59;16.79;85.27
67005;HTU21D;53920;51.094;5.902;2023-08-01T02:29:25;16.80;85.06
67005;HTU21D;53920;51.094;5.902;2023-08-01T02:31:50;16.78;84.99
67005;HTU21D;53920;51.094;5.902;2023-08-01T02:34:16;16.66;85.31
67005;HTU21D;53920;51.094;5.902;2023-08-01T02:36:42;16.63;85.18
67005;HTU21D;53920;51.094;5.902;2023-08-01T02:39:08;16.59;85.07
67005;HTU21D;53920;51.094;5.902;2023-08-01T02:41:34;16.58;84.92
67005;HTU21D;53920;51.094;5.902;2023-08-01T02:44:00;16.55;84.90
67005;HTU21D;53920;51.094;5.902;2023-08-01T02:46:27;16.48;84.97
67005;HTU21D;53920;51.094;5.902;2023-08-01T02:48:55;16.45;84.90
67005;HTU21D;53920;51.094;5.902;2023-08-01T02:51:21;16.44;84.77
67005;HTU21D;53920;51.094;5.902;2023-08-01T02:53:47;16.41;84.85
67005;HTU21D;53920;51.094;5.902;2023-08-01T02:56:12;16.44;84.71
67005;HTU21D;53920;51.094;5.902;2023-08-01T02:58:39;16.46;84.74
67005;HTU21D;53920;51.094;5.902;2023-08-01T03:01:06;16.48;84.64
67005;HTU21D;53920;51.094;5.902;2023-08-01T03:03:35;16.52;84.42
67005;HTU21D;53920;51.094;5.902;2023-08-01T03:06:02;16.59;84.31
67005;HTU21D;53920;51.094;5.902;2023-08-01T03:08:28;16.59;84.32
67005;HTU21D;53920;51.094;5.902;2023-08-01T03:10:55;16.62;84.15
67005;HTU21D;53920;51.094;5.902;2023-08-01T03:13:21;16.70;84.09
67005;HTU21D;53920;51.094;5.902;2023-08-01T03:15:47;16.74;83.95
67005;HTU21D;53920;51.094;5.902;2023-08-01T03:18:13;16.75;83.93
67005;HTU21D;53920;51.094;5.902;2023-08-01T03:20:39;16.79;83.80
67005;HTU21D;53920;51.094;5.902;2023-08-01T03:23:05;16.76;83.84
67005;HTU21D;53920;51.094;5.902;2023-08-01T03:25:31;16.75;83.93
67005;HTU21D;53920;51.094;5.902;2023-08-01T03:27:57;16.74;83.94
67005;HTU21D;53920;51.094;5.902;2023-08-01T03:30:23;16.73;83.83
67005;HTU21D;53920;51.094;5.902;2023-08-01T03:32:49;16.70;83.97
67005;HTU21D;53920;51.094;5.902;2023-08-01T03:35:15;16.65;84.07
67005;HTU21D;53920;51.094;5.902;2023-08-01T03:37:41;16.66;84.05
67005;HTU21D;53920;51.094;5.902;2023-08-01T03:40:07;16.72;83.86
67005;HTU21D;53920;51.094;5.902;2023-08-01T03:42:38;16.79;83.49
67005;HTU21D;53920;51.094;5.902;2023-08-01T03:45:06;16.77;83.67
67005;HTU21D;53920;51.094;5.902;2023-08-01T03:47:32;16.75;83.64
67005;HTU21D;53920;51.094;5.902;2023-08-01T03:49:58;16.76;83.55
67005;HTU21D;53920;51.094;5.902;2023-08-01T03:52:25;16.76;83.49
67005;HTU21D;53920;51.094;5.902;2023-08-01T03:54:55;16.72;83.51
67005;HTU21D;53920;51.094;5.902;2023-08-01T03:57:22;16.71;83.49
67005;HTU21D;53920;51.094;5.902;2023-08-01T03:59:48;16.60;83.78
67005;HTU21D;53920;51.094;5.902;2023-08-01T04:02:13;16.62;83.57
67005;HTU21D;53920;51.094;5.902;2023-08-01T04:04:39;16.65;83.42
67005;HTU21D;53920;51.094;5.902;2023-08-01T04:07:05;16.65;83.39
67005;HTU21D;53920;51.094;5.902;2023-08-01T04:09:31;16.63;83.39
67005;HTU21D;53920;51.094;5.902;2023-08-01T04:11:57;16.63;83.22
67005;HTU21D;53920;51.094;5.902;2023-08-01T04:14:23;16.65;83.14
67005;HTU21D;53920;51.094;5.902;2023-08-01T04:16:48;16.69;83.06
67005;HTU21D;53920;51.094;5.902;2023-08-01T04:19:14;16.69;82.99
67005;HTU21D;53920;51.094;5.902;2023-08-01T04:21:40;16.59;83.06
67005;HTU21D;53920;51.094;5.902;2023-08-01T04:24:06;16.57;83.01
67005;HTU21D;53920;51.094;5.902;2023-08-01T04:26:32;16.50;83.00
67005;HTU21D;53920;51.094;5.902;2023-08-01T04:28:58;16.42;83.13
67005;HTU21D;53920;51.094;5.902;2023-08-01T04:31:24;16.41;83.24
67005;HTU21D;53920;51.094;5.902;2023-08-01T04:33:49;16.40;83.26
67005;HTU21D;53920;51.094;5.902;2023-08-01T04:36:15;16.31;83.52
67005;HTU21D;53920;51.094;5.902;2023-08-01T04:38:41;16.41;83.31
67005;HTU21D;53920;51.094;5.902;2023-08-01T04:41:07;16.50;83.22
67005;HTU21D;53920;51.094;5.902;2023-08-01T04:43:33;16.64;82.94
67005;HTU21D;53920;51.094;5.902;2023-08-01T04:45:59;16.76;82.67
67005;HTU21D;53920;51.094;5.902;2023-08-01T04:48:25;16.79;82.44
67005;HTU21D;53920;51.094;5.902;2023-08-01T04:50:51;16.87;82.36
67005;HTU21D;53920;51.094;5.902;2023-08-01T04:53:17;16.93;82.17
67005;HTU21D;53920;51.094;5.902;2023-08-01T04:55:42;16.92;82.05
67005;HTU21D;53920;51.094;5.902;2023-08-01T04:58:08;16.94;82.07
67005;HTU21D;53920;51.094;5.902;2023-08-01T05:00:34;16.93;82.08
67005;HTU21D;53920;51.094;5.902;2023-08-01T05:03:00;16.93;82.05
67005;HTU21D;53920;51.094;5.902;2023-08-01T05:05:26;16.98;82.01
67005;HTU21D;53920;51.094;5.902;2023-08-01T05:07:52;17.01;81.88
67005;HTU21D;53920;51.094;5.902;2023-08-01T05:10:18;17.02;81.76
67005;HTU21D;53920;51.094;5.902;2023-08-01T05:12:43;17.07;81.53
67005;HTU21D;53920;51.094;5.902;2023-08-01T05:15:09;17.13;81.43
67005;HTU21D;53920;51.094;5.902;2023-08-01T05:17:35;17.10;81.46
67005;HTU21D;53920;51.094;5.902;2023-08-01T05:20:01;17.13;81.39
67005;HTU21D;53920;51.094;5.902;2023-08-01T05:22:29;17.22;81.19
67005;HTU21D;53920;51.094;5.902;2023-08-01T05:24:55;17.31;81.01
67005;HTU21D;53920;51.094;5.902;2023-08-01T05:27:20;17.35;80.81
67005;HTU21D;53920;51.094;5.902;2023-08-01T05:29:46;17.43;80.50
67005;HTU21D;53920;51.094;5.902;2023-08-01T05:32:12;17.44;80.41
67005;HTU21D;53920;51.094;5.902;2023-08-01T05:34:41;17.39;80.51
67005;HTU21D;53920;51.094;5.902;2023-08-01T05:37:07;17.38;80.43
67005;HTU21D;53920;51.094;5.902;2023-08-01T05:39:33;17.37;80.42
67005;HTU21D;53920;51.094;5.902;2023-08-01T05:41:58;17.39;80.33
67005;HTU21D;53920;51.094;5.902;2023-08-01T05:44:24;17.44;80.15
67005;HTU21D;53920;51.094;5.902;2023-08-01T05:46:50;17.49;80.05
67005;HTU21D;53920;51.094;5.902;2023-08-01T05:49:16;17.45;80.02
67005;HTU21D;53920;51.094;5.902;2023-08-01T05:51:42;17.41;80.12
67005;HTU21D;53920;51.094;5.902;2023-08-01T05:54:08;17.35;80.24
67005;HTU21D;53920;51.094;5.902;2023-08-01T05:56:34;17.40;80.01
67005;HTU21D;53920;51.094;5.902;2023-08-01T05:58:59;17.35;80.02
67005;HTU21D;53920;51.094;5.902;2023-08-01T06:01:26;17.28;80.15
67005;HTU21D;53920;51.094;5.902;2023-08-01T06:03:52;17.23;80.30
67005;HTU21D;53920;51.094;5.902;2023-08-01T06:06:17;17.23;80.31
67005;HTU21D;53920;51.094;5.902;2023-08-01T06:08:44;17.30;79.93
67005;HTU21D;53920;51.094;5.902;2023-08-01T06:11:10;17.36;79.69
67005;HTU21D;53920;51.094;5.902;2023-08-01T06:13:35;17.53;79.23
67005;HTU21D;53920;51.094;5.902;2023-08-01T06:16:01;17.80;78.72
67005;HTU21D;53920;51.094;5.902;2023-08-01T06:18:27;17.94;78.19
67005;HTU21D;53920;51.094;5.902;2023-08-01T06:20:53;18.12;77.68
67005;HTU21D;53920;51.094;5.902;2023-08-01T06:23:19;18.20;77.37
67005;HTU21D;53920;51.094;5.902;2023-08-01T06:25:45;18.20;77.13
67005;HTU21D;53920;51.094;5.902;2023-08-01T06:28:10;18.20;76.76
67005;HTU21D;53920;51.094;5.902;2023-08-01T06:30:36;18.12;76.73
67005;HTU21D;53920;51.094;5.902;2023-08-01T06:33:02;18.29;76.30
67005;HTU21D;53920;51.094;5.902;2023-08-01T06:35:28;18.46;75.89
67005;HTU21D;53920;51.094;5.902;2023-08-01T06:37:54;18.56;75.70
67005;HTU21D;53920;51.094;5.902;2023-08-01T06:40:20;18.74;74.86
67005;HTU21D;53920;51.094;5.902;2023-08-01T06:42:46;18.82;74.49
67005;HTU21D;53920;51.094;5.902;2023-08-01T06:45:12;18.74;74.26
67005;HTU21D;53920;51.094;5.902;2023-08-01T06:47:37;18.64;74.44
67005;HTU21D;53920;51.094;5.902;2023-08-01T06:50:04;18.52;74.62
67005;HTU21D;53920;51.094;5.902;2023-08-01T06:52:30;18.55;74.73
67005;HTU21D;53920;51.094;5.902;2023-08-01T06:54:56;18.54;74.77
67005;HTU21D;53920;51.094;5.902;2023-08-01T06:57:22;18.69;74.23
67005;HTU21D;53920;51.094;5.902;2023-08-01T06:59:48;18.84;73.67
67005;HTU21D;53920;51.094;5.902;2023-08-01T07:02:14;18.84;73.37
67005;HTU21D;53920;51.094;5.902;2023-08-01T07:04:41;18.86;73.25
67005;HTU21D;53920;51.094;5.902;2023-08-01T07:07:06;18.95;72.92
67005;HTU21D;53920;51.094;5.902;2023-08-01T07:09:34;18.88;72.84
67005;HTU21D;53920;51.094;5.902;2023-08-01T07:12:00;18.94;72.67
67005;HTU21D;53920;51.094;5.902;2023-08-01T07:14:26;19.26;72.18
67005;HTU21D;53920;51.094;5.902;2023-08-01T07:16:51;19.58;71.22
67005;HTU21D;53920;51.094;5.902;2023-08-01T07:19:17;19.57;71.14
67005;HTU21D;53920;51.094;5.902;2023-08-01T07:21:43;19.68;70.59
67005;HTU21D;53920;51.094;5.902;2023-08-01T07:24:12;19.75;70.10
67005;HTU21D;53920;51.094;5.902;2023-08-01T07:26:39;19.43;70.81
67005;HTU21D;53920;51.094;5.902;2023-08-01T07:29:05;19.16;71.20
67005;HTU21D;53920;51.094;5.902;2023-08-01T07:31:31;18.92;71.79
67005;HTU21D;53920;51.094;5.902;2023-08-01T07:33:57;18.86;72.10
67005;HTU21D;53920;51.094;5.902;2023-08-01T07:36:23;18.77;72.25
67005;HTU21D;53920;51.094;5.902;2023-08-01T07:38:49;18.74;72.54
67005;HTU21D;53920;51.094;5.902;2023-08-01T07:41:15;18.89;72.32
67005;HTU21D;53920;51.094;5.902;2023-08-01T07:43:41;19.24;70.96
67005;HTU21D;53920;51.094;5.902;2023-08-01T07:46:07;19.77;70.45
67005;HTU21D;53920;51.094;5.902;2023-08-01T07:48:34;20.03;68.70
67005;HTU21D;53920;51.094;5.902;2023-08-01T07:51:00;20.98;66.46
67005;HTU21D;53920;51.094;5.902;2023-08-01T07:53:27;22.25;61.99
67005;HTU21D;53920;51.094;5.902;2023-08-01T07:55:52;22.01;62.61
67005;HTU21D;53920;51.094;5.902;2023-08-01T07:58:19;21.39;63.82
67005;HTU21D;53920;51.094;5.902;2023-08-01T08:00:44;20.92;65.46
67005;HTU21D;53920;51.094;5.902;2023-08-01T08:03:11;21.06;65.02
67005;HTU21D;53920;51.094;5.902;2023-08-01T08:05:37;21.87;62.53
67005;HTU21D;53920;51.094;5.902;2023-08-01T08:08:04;21.70;62.86
67005;HTU21D;53920;51.094;5.902;2023-08-01T08:10:30;21.46;63.55
67005;HTU21D;53920;51.094;5.902;2023-08-01T08:12:56;20.99;64.68
67005;HTU21D;53920;51.094;5.902;2023-08-01T08:15:22;20.75;65.29
67005;HTU21D;53920;51.094;5.902;2023-08-01T08:17:49;20.49;66.21
67005;HTU21D;53920;51.094;5.902;2023-08-01T08:20:15;20.45;66.49
67005;HTU21D;53920;51.094;5.902;2023-08-01T08:22:41;20.33;66.95
67005;HTU21D;53920;51.094;5.902;2023-08-01T08:25:07;20.59;66.40
67005;HTU21D;53920;51.094;5.902;2023-08-01T08:27:33;21.73;63.69
67005;HTU21D;53920;51.094;5.902;2023-08-01T08:29:59;23.74;57.66
67005;HTU21D;53920;51.094;5.902;2023-08-01T08:32:25;24.73;55.12
67005;HTU21D;53920;51.094;5.902;2023-08-01T08:34:51;24.44;54.81
67005;HTU21D;53920;51.094;5.902;2023-08-01T08:37:17;23.40;56.69
67005;HTU21D;53920;51.094;5.902;2023-08-01T08:39:42;22.72;58.40
67005;HTU21D;53920;51.094;5.902;2023-08-01T08:42:10;23.23;57.96
67005;HTU21D;53920;51.094;5.902;2023-08-01T08:44:42;24.35;54.79
67005;HTU21D;53920;51.094;5.902;2023-08-01T08:47:10;25.54;51.76
67005;HTU21D;53920;51.094;5.902;2023-08-01T08:49:37;26.83;48.36
67005;HTU21D;53920;51.094;5.902;2023-08-01T08:52:04;27.52;46.82
67005;HTU21D;53920;51.094;5.902;2023-08-01T08:54:31;27.27;47.28
67005;HTU21D;53920;51.094;5.902;2023-08-01T08:56:58;27.95;46.19
67005;HTU21D;53920;51.094;5.902;2023-08-01T08:59:25;28.83;43.96
67005;HTU21D;53920;51.094;5.902;2023-08-01T09:01:52;28.14;44.69
67005;HTU21D;53920;51.094;5.902;2023-08-01T09:04:19;26.82;47.31
67005;HTU21D;53920;51.094;5.902;2023-08-01T09:06:46;26.01;49.20
67005;HTU21D;53920;51.094;5.902;2023-08-01T09:09:14;25.63;50.50
67005;HTU21D;53920;51.094;5.902;2023-08-01T09:11:51;24.36;53.05
67005;HTU21D;53920;51.094;5.902;2023-08-01T09:14:18;23.24;55.49
67005;HTU21D;53920;51.094;5.902;2023-08-01T09:16:45;22.58;57.44
67005;HTU21D;53920;51.094;5.902;2023-08-01T09:19:21;23.31;55.29
67005;HTU21D;53920;51.094;5.902;2023-08-01T09:21:48;24.73;51.53
67005;HTU21D;53920;51.094;5.902;2023-08-01T09:24:16;25.34;49.58
67005;HTU21D;53920;51.094;5.902;2023-08-01T09:26:43;24.49;52.33
67005;HTU21D;53920;51.094;5.902;2023-08-01T09:29:09;23.71;53.63
67005;HTU21D;53920;51.094;5.902;2023-08-01T09:31:38;23.84;53.57
67005;HTU21D;53920;51.094;5.902;2023-08-01T09:34:05;23.84;53.38
67005;HTU21D;53920;51.094;5.902;2023-08-01T09:36:33;23.31;53.30
67005;HTU21D;53920;51.094;5.902;2023-08-01T09:39:01;23.01;54.42
67005;HTU21D;53920;51.094;5.902;2023-08-01T09:41:29;22.68;55.58
67005;HTU21D;53920;51.094;5.902;2023-08-01T09:43:55;22.42;56.45
67005;HTU21D;53920;51.094;5.902;2023-08-01T09:46:21;22.35;56.66
67005;HTU21D;53920;51.094;5.902;2023-08-01T09:48:47;23.75;53.14
67005;HTU21D;53920;51.094;5.902;2023-08-01T09:51:18;25.56;48.74
67005;HTU21D;53920;51.094;5.902;2023-08-01T09:53:52;25.88;47.60
67005;HTU21D;53920;51.094;5.902;2023-08-01T09:56:23;27.40;44.83
67005;HTU21D;53920;51.094;5.902;2023-08-01T09:58:51;28.02;42.47
67005;HTU21D;53920;51.094;5.902;2023-08-01T10:01:20;27.76;43.16
67005;HTU21D;53920;51.094;5.902;2023-08-01T10:03:51;27.29;44.05
67005;HTU21D;53920;51.094;5.902;2023-08-01T10:06:19;27.64;43.03
67005;HTU21D;53920;51.094;5.902;2023-08-01T10:08:50;28.38;41.00
67005;HTU21D;53920;51.094;5.902;2023-08-01T10:11:21;28.38;40.65
67005;HTU21D;53920;51.094;5.902;2023-08-01T10:13:48;28.05;40.48
67005;HTU21D;53920;51.094;5.902;2023-08-01T10:16:15;27.61;41.89
67005;HTU21D;53920;51.094;5.902;2023-08-01T10:18:43;27.45;42.45
67005;HTU21D;53920;51.094;5.902;2023-08-01T10:21:13;26.73;42.93
67005;HTU21D;53920;51.094;5.902;2023-08-01T10:23:41;25.51;45.75
67005;HTU21D;53920;51.094;5.902;2023-08-01T10:26:09;26.23;44.92
67005;HTU21D;53920;51.094;5.902;2023-08-01T10:28:40;27.64;42.08
67005;HTU21D;53920;51.094;5.902;2023-08-01T10:31:14;27.20;41.82
67005;HTU21D;53920;51.094;5.902;2023-08-01T10:33:43;26.56;43.51
67005;HTU21D;53920;51.094;5.902;2023-08-01T10:36:13;26.76;43.10
67005;HTU21D;53920;51.094;5.902;2023-08-01T10:38:54;27.71;40.43
67005;HTU21D;53920;51.094;5.902;2023-08-01T10:41:28;27.28;40.78
67005;HTU21D;53920;51.094;5.902;2023-08-01T10:44:12;26.40;42.48
67005;HTU21D;53920;51.094;5.902;2023-08-01T10:49:19;28.94;38.15
67005;HTU21D;53920;51.094;5.902;2023-08-01T10:51:46;29.01;37.45
67005;HTU21D;53920;51.094;5.902;2023-08-01T10:54:22;28.12;39.20
67005;HTU21D;53920;51.094;5.902;2023-08-01T10:56:55;27.53;40.49
67005;HTU21D;53920;51.094;5.902;2023-08-01T10:59:22;28.62;38.17
67005;HTU21D;53920;51.094;5.902;2023-08-01T11:01:50;28.72;38.08
67005;HTU21D;53920;51.094;5.902;2023-08-01T11:04:23;29.47;36.72
67005;HTU21D;53920;51.094;5.902;2023-08-01T11:06:52;29.89;36.31
67005;HTU21D;53920;51.094;5.902;2023-08-01T11:09:23;29.81;34.40
67005;HTU21D;53920;51.094;5.902;2023-08-01T11:11:54;28.92;36.89
67005;HTU21D;53920;51.094;5.902;2023-08-01T11:14:22;27.45;39.69
67005;HTU21D;53920;51.094;5.902;2023-08-01T11:16:50;26.35;42.10
67005;HTU21D;53920;51.094;5.902;2023-08-01T11:19:29;26.47;41.84
67005;HTU21D;53920;51.094;5.902;2023-08-01T11:21:58;25.84;42.92
67005;HTU21D;53920;51.094;5.902;2023-08-01T11:24:25;25.39;44.32
67005;HTU21D;53920;51.094;5.902;2023-08-01T11:26:53;25.32;46.41
67005;HTU21D;53920;51.094;5.902;2023-08-01T11:29:20;25.57;46.26
67005;HTU21D;53920;51.094;5.902;2023-08-01T11:31:58;26.24;45.67
67005;HTU21D;53920;51.094;5.902;2023-08-01T11:34:25;26.79;44.73
67005;HTU21D;53920;51.094;5.902;2023-08-01T11:36:52;27.19;43.79
67005;HTU21D;53920;51.094;5.902;2023-08-01T11:39:18;26.19;45.26
67005;HTU21D;53920;51.094;5.902;2023-08-01T11:41:45;25.20;46.96
67005;HTU21D;53920;51.094;5.902;2023-08-01T11:44:11;24.73;47.98
67005;HTU21D;53920;51.094;5.902;2023-08-01T11:46:38;24.56;48.60
67005;HTU21D;53920;51.094;5.902;2023-08-01T11:49:08;24.09;49.48
67005;HTU21D;53920;51.094;5.902;2023-08-01T11:51:41;23.61;50.72
67005;HTU21D;53920;51.094;5.902;2023-08-01T11:54:08;23.21;51.93
67005;HTU21D;53920;51.094;5.902;2023-08-01T11:56:37;23.09;52.84
67005;HTU21D;53920;51.094;5.902;2023-08-01T11:59:14;24.45;50.32
67005;HTU21D;53920;51.094;5.902;2023-08-01T12:01:45;26.69;45.37
67005;HTU21D;53920;51.094;5.902;2023-08-01T12:04:12;28.48;41.72
67005;HTU21D;53920;51.094;5.902;2023-08-01T12:06:38;30.09;38.24
67005;HTU21D;53920;51.094;5.902;2023-08-01T12:09:11;30.72;36.77
67005;HTU21D;53920;51.094;5.902;2023-08-01T12:11:39;29.50;38.05
67005;HTU21D;53920;51.094;5.902;2023-08-01T12:14:13;27.98;38.06
67005;HTU21D;53920;51.094;5.902;2023-08-01T12:16:42;26.45;42.19
67005;HTU21D;53920;51.094;5.902;2023-08-01T12:19:20;25.51;43.62
67005;HTU21D;53920;51.094;5.902;2023-08-01T12:21:47;25.57;43.45
67005;HTU21D;53920;51.094;5.902;2023-08-01T12:24:13;25.81;43.12
67005;HTU21D;53920;51.094;5.902;2023-08-01T12:26:39;26.28;42.22
67005;HTU21D;53920;51.094;5.902;2023-08-01T12:29:05;26.92;41.13
67005;HTU21D;53920;51.094;5.902;2023-08-01T12:31:31;27.26;39.71
67005;HTU21D;53920;51.094;5.902;2023-08-01T12:33:57;27.73;39.00
67005;HTU21D;53920;51.094;5.902;2023-08-01T12:36:23;27.94;38.16
67005;HTU21D;53920;51.094;5.902;2023-08-01T12:38:49;28.14;37.66
67005;HTU21D;53920;51.094;5.902;2023-08-01T12:41:15;27.52;38.39
67005;HTU21D;53920;51.094;5.902;2023-08-01T12:43:41;27.12;38.87
67005;HTU21D;53920;51.094;5.902;2023-08-01T12:46:07;27.89;37.82
67005;HTU21D;53920;51.094;5.902;2023-08-01T12:48:33;28.28;36.97
67005;HTU21D;53920;51.094;5.902;2023-08-01T12:51:00;28.30;36.88
67005;HTU21D;53920;51.094;5.902;2023-08-01T12:53:26;27.50;37.88
67005;HTU21D;53920;51.094;5.902;2023-08-01T12:55:57;26.87;39.03
67005;HTU21D;53920;51.094;5.902;2023-08-01T12:58:23;26.72;39.14
67005;HTU21D;53920;51.094;5.902;2023-08-01T13:00:49;26.19;40.38
67005;HTU21D;53920;51.094;5.902;2023-08-01T13:03:15;25.79;41.62
67005;HTU21D;53920;51.094;5.902;2023-08-01T13:05:42;25.42;42.34
67005;HTU21D;53920;51.094;5.902;2023-08-01T13:08:09;25.20;42.84
67005;HTU21D;53920;51.094;5.902;2023-08-01T13:10:37;24.94;42.81
67005;HTU21D;53920;51.094;5.902;2023-08-01T13:13:03;24.75;43.41
67005;HTU21D;53920;51.094;5.902;2023-08-01T13:15:29;24.79;43.26
67005;HTU21D;53920;51.094;5.902;2023-08-01T13:17:56;24.94;43.00
67005;HTU21D;53920;51.094;5.902;2023-08-01T13:20:22;25.40;42.30
67005;HTU21D;53920;51.094;5.902;2023-08-01T13:22:51;25.54;42.32
67005;HTU21D;53920;51.094;5.902;2023-08-01T13:25:18;25.80;41.92
67005;HTU21D;53920;51.094;5.902;2023-08-01T13:27:44;26.20;41.36
67005;HTU21D;53920;51.094;5.902;2023-08-01T13:30:10;26.89;40.06
67005;HTU21D;53920;51.094;5.902;2023-08-01T13:32:40;27.42;39.03
67005;HTU21D;53920;51.094;5.902;2023-08-01T13:35:07;27.59;38.53
67005;HTU21D;53920;51.094;5.902;2023-08-01T13:37:32;27.52;38.72
67005;HTU21D;53920;51.094;5.902;2023-08-01T13:39:58;26.92;39.52
67005;HTU21D;53920;51.094;5.902;2023-08-01T13:42:26;26.33;40.55
67005;HTU21D;53920;51.094;5.902;2023-08-01T13:44:54;26.42;40.81
67005;HTU21D;53920;51.094;5.902;2023-08-01T13:47:21;26.23;40.68
67005;HTU21D;53920;51.094;5.902;2023-08-01T13:49:46;26.16;40.61
67005;HTU21D;53920;51.094;5.902;2023-08-01T13:52:12;25.78;41.09
67005;HTU21D;53920;51.094;5.902;2023-08-01T13:54:38;25.95;41.40
67005;HTU21D;53920;51.094;5.902;2023-08-01T13:57:05;25.83;42.03
67005;HTU21D;53920;51.094;5.902;2023-08-01T13:59:31;25.93;42.28
67005;HTU21D;53920;51.094;5.902;2023-08-01T14:01:57;25.91;42.21
67005;HTU21D;53920;51.094;5.902;2023-08-01T14:04:23;26.16;41.67
67005;HTU21D;53920;51.094;5.902;2023-08-01T14:06:49;26.19;41.77
67005;HTU21D;53920;51.094;5.902;2023-08-01T14:09:15;25.93;41.97
67005;HTU21D;53920;51.094;5.902;2023-08-01T14:11:41;25.47;42.97
67005;HTU21D;53920;51.094;5.902;2023-08-01T14:14:07;25.10;43.33
67005;HTU21D;53920;51.094;5.902;2023-08-01T14:16:33;24.88;42.30
67005;HTU21D;53920;51.094;5.902;2023-08-01T14:18:59;24.58;42.12
67005;HTU21D;53920;51.094;5.902;2023-08-01T14:21:25;24.14;42.45
67005;HTU21D;53920;51.094;5.902;2023-08-01T14:23:52;23.76;43.58
67005;HTU21D;53920;51.094;5.902;2023-08-01T14:26:18;23.47;44.54
67005;HTU21D;53920;51.094;5.902;2023-08-01T14:28:44;23.18;45.26
67005;HTU21D;53920;51.094;5.902;2023-08-01T14:31:10;23.34;45.56
67005;HTU21D;53920;51.094;5.902;2023-08-01T14:33:35;23.84;45.06
67005;HTU21D;53920;51.094;5.902;2023-08-01T14:36:01;24.30;43.84
67005;HTU21D;53920;51.094;5.902;2023-08-01T14:38:27;24.89;42.83
67005;HTU21D;53920;51.094;5.902;2023-08-01T14:40:53;25.20;41.74
67005;HTU21D;53920;51.094;5.902;2023-08-01T14:43:20;25.61;41.42
67005;HTU21D;53920;51.094;5.902;2023-08-01T14:45:46;25.48;40.90
67005;HTU21D;53920;51.094;5.902;2023-08-01T14:48:12;24.91;41.23
67005;HTU21D;53920;51.094;5.902;2023-08-01T14:50:38;24.44;42.15
67005;HTU21D;53920;51.094;5.902;2023-08-01T14:53:04;24.18;42.81
67005;HTU21D;53920;51.094;5.902;2023-08-01T14:55:32;24.01;42.97
67005;HTU21D;53920;51.094;5.902;2023-08-01T14:57:58;23.70;43.03
67005;HTU21D;53920;51.094;5.902;2023-08-01T15:00:24;23.26;43.56
67005;HTU21D;53920;51.094;5.902;2023-08-01T15:02:51;22.98;44.37
67005;HTU21D;53920;51.094;5.902;2023-08-01T15:05:17;22.73;44.85
67005;HTU21D;53920;51.094;5.902;2023-08-01T15:07:43;22.50;45.64
67005;HTU21D;53920;51.094;5.902;2023-08-01T15:10:09;22.27;46.03
67005;HTU21D;53920;51.094;5.902;2023-08-01T15:12:35;22.20;46.39
67005;HTU21D;53920;51.094;5.902;2023-08-01T15:15:01;22.24;46.46
67005;HTU21D;53920;51.094;5.902;2023-08-01T15:17:27;22.23;46.53